createdAt,value
2019-01-23T00:00:20.389Z,22.22
2019-01-23T00:02:47.806Z,24.05
2019-01-23T00:05:15.320Z,22.90
2019-01-23T00:07:42.716Z,20.15
2019-01-23T00:10:10.144Z,19.98
2019-01-23T00:12:37.596Z,22.75
2019-01-23T00:15:05.079Z,22.85
2019-01-23T00:17:32.539Z,21.33
2019-01-23T00:19:59.953Z,23.20
2019-01-23T00:22:27.346Z,19.37
2019-01-23T00:24:54.764Z,21.30
2019-01-23T00:27:22.221Z,20.90
2019-01-23T00:29:49.656Z,22.27
2019-01-23T00:32:17.095Z,23.25
2019-01-23T00:34:44.584Z,23.90
2019-01-23T00:37:12.134Z,19.92
2019-01-23T00:39:39.721Z,21.05
2019-01-23T00:42:07.198Z,21.62
2019-01-23T00:44:35.319Z,20.08
2019-01-23T00:47:02.732Z,23.02
2019-01-23T00:49:30.148Z,21.50
2019-01-23T00:51:58.356Z,23.02
2019-01-23T00:54:25.882Z,21.77
2019-01-23T00:56:53.271Z,21.57
2019-01-23T00:59:20.772Z,21.25
2019-01-23T01:01:48.213Z,20.17
2019-01-23T01:04:15.599Z,21.40
2019-01-23T01:06:43.069Z,22.62
2019-01-23T01:09:10.492Z,22.55
2019-01-23T01:11:37.970Z,21.70
2019-01-23T01:14:05.367Z,23.42
2019-01-23T01:16:32.972Z,23.42
2019-01-23T01:19:00.504Z,21.02
2019-01-23T01:21:27.988Z,20.40
2019-01-23T01:23:55.502Z,22.52
2019-01-23T01:26:22.963Z,21.90
2019-01-23T01:28:55.988Z,22.40
2019-01-23T01:31:19.785Z,21.68
2019-01-23T01:33:47.150Z,21.70
2019-01-23T01:36:14.706Z,22.42
2019-01-23T01:38:42.295Z,22.27
2019-01-23T01:41:09.812Z,23.20
2019-01-23T01:43:37.259Z,23.20
2019-01-23T01:46:04.653Z,21.90
2019-01-23T01:48:32.152Z,21.30
2019-01-23T01:50:59.638Z,21.97
2019-01-23T01:53:27.005Z,22.10
2019-01-23T01:55:54.481Z,22.15
2019-01-23T01:58:22.387Z,21.55
2019-01-23T02:00:49.857Z,20.92
2019-01-23T02:03:17.257Z,21.87
2019-01-23T02:05:44.869Z,21.82
2019-01-23T02:08:12.716Z,21.40
2019-01-23T02:10:40.115Z,20.50
2019-01-23T02:13:07.678Z,20.60
2019-01-23T02:15:35.142Z,21.12
2019-01-23T02:18:02.579Z,21.30
2019-01-23T02:20:30.020Z,20.27
2019-01-23T02:22:57.616Z,21.20
2019-01-23T02:25:25.086Z,21.00
2019-01-23T02:27:52.674Z,22.98
2019-01-23T02:30:22.936Z,22.13
2019-01-23T02:32:50.466Z,20.85
2019-01-23T02:35:17.927Z,20.62
2019-01-23T02:37:45.505Z,22.25
2019-01-23T02:40:15.396Z,21.87
2019-01-23T02:42:42.816Z,20.75
2019-01-23T02:45:10.735Z,19.75
2019-01-23T02:47:38.143Z,20.95
2019-01-23T02:50:06.089Z,21.42
2019-01-23T02:52:33.927Z,20.97
2019-01-23T02:55:01.344Z,20.88
2019-01-23T02:57:29.227Z,21.52
2019-01-23T02:59:56.707Z,23.25
2019-01-23T03:02:24.189Z,20.25
2019-01-23T03:04:51.580Z,19.17
2019-01-23T03:07:19.002Z,19.10
2019-01-23T03:09:46.390Z,22.15
2019-01-23T03:12:13.825Z,20.85
2019-01-23T03:14:41.215Z,22.62
2019-01-23T03:17:08.767Z,20.68
2019-01-23T03:19:36.481Z,21.00
2019-01-23T03:22:04.009Z,20.72
2019-01-23T03:24:31.632Z,20.72
2019-01-23T03:26:59.158Z,20.37
2019-01-23T03:29:26.537Z,23.25
2019-01-23T03:31:53.998Z,20.62
2019-01-23T03:34:21.529Z,20.50
2019-01-23T03:36:49.176Z,19.37
2019-01-23T03:39:16.542Z,20.68
2019-01-23T03:41:43.982Z,19.55
2019-01-23T03:44:11.418Z,19.87
2019-01-23T03:46:38.991Z,19.87
2019-01-23T03:49:06.491Z,21.60
2019-01-23T03:51:33.916Z,22.05
2019-01-23T03:54:01.295Z,21.20
2019-01-23T03:56:28.827Z,21.82
2019-01-23T03:58:56.657Z,20.12
2019-01-23T04:01:24.055Z,19.80
2019-01-23T04:03:51.776Z,18.73
2019-01-23T04:06:19.256Z,20.05
2019-01-23T04:08:46.744Z,20.97
2019-01-23T04:11:14.112Z,21.93
2019-01-23T04:13:41.613Z,18.98
2019-01-23T04:16:09.062Z,22.80
2019-01-23T04:18:36.834Z,18.90
2019-01-23T04:21:04.444Z,20.90
2019-01-23T04:23:31.912Z,18.02
2019-01-23T04:25:59.352Z,20.70
2019-01-23T04:28:26.952Z,18.35
2019-01-23T04:30:54.443Z,19.57
2019-01-23T04:33:21.856Z,18.42
2019-01-23T04:35:49.308Z,19.48
2019-01-23T04:38:17.356Z,18.52
2019-01-23T04:40:44.950Z,18.65
2019-01-23T04:43:12.608Z,19.12
2019-01-23T04:45:40.016Z,17.85
2019-01-23T04:48:07.475Z,18.82
2019-01-23T04:50:54.456Z,17.45
2019-01-23T04:53:30.132Z,19.20
2019-01-23T04:56:00.802Z,16.70
2019-01-23T04:58:28.625Z,17.12
2019-01-23T05:00:56.093Z,17.62
2019-01-23T05:03:23.631Z,18.02
2019-01-23T05:05:51.263Z,18.02
2019-01-23T05:08:18.799Z,19.07
2019-01-23T05:10:46.324Z,18.00
2019-01-23T05:13:13.918Z,16.93
2019-01-23T05:15:41.435Z,18.60
2019-01-23T05:18:09.032Z,17.95
2019-01-23T05:20:36.670Z,18.45
2019-01-23T05:23:04.262Z,17.45
2019-01-23T05:25:32.007Z,18.57
2019-01-23T05:27:59.554Z,19.07
2019-01-23T05:30:26.962Z,17.65
2019-01-23T05:32:54.407Z,18.62
2019-01-23T05:35:21.903Z,18.37
2019-01-23T05:37:49.992Z,16.85
2019-01-23T05:40:17.462Z,18.30
2019-01-23T05:42:44.931Z,19.25
2019-01-23T05:45:13.062Z,17.87
2019-01-23T05:47:40.680Z,19.95
2019-01-23T05:50:11.071Z,18.52
2019-01-23T05:52:38.499Z,17.30
2019-01-23T05:55:07.617Z,18.50
2019-01-23T05:57:35.129Z,18.25
2019-01-23T06:00:03.944Z,20.35
2019-01-23T06:02:31.645Z,20.57
2019-01-23T06:04:59.268Z,18.55
2019-01-23T06:07:26.935Z,22.70
2019-01-23T06:09:54.465Z,16.55
2019-01-23T06:12:22.264Z,17.25
2019-01-23T06:14:49.877Z,17.40
2019-01-23T06:17:17.514Z,19.95
2019-01-23T06:19:45.127Z,20.08
2019-01-23T06:22:12.883Z,21.85
2019-01-23T06:24:40.464Z,18.07
2019-01-23T06:27:08.347Z,19.75
2019-01-23T06:29:35.941Z,20.45
2019-01-23T06:32:03.599Z,18.87
2019-01-23T06:34:31.441Z,21.52
2019-01-23T06:37:01.785Z,20.50
2019-01-23T06:39:29.391Z,19.35
2019-01-23T06:41:56.851Z,19.02
2019-01-23T06:44:25.346Z,18.82
2019-01-23T06:46:53.139Z,20.77
2019-01-23T06:49:20.715Z,20.15
2019-01-23T06:51:48.238Z,19.23
2019-01-23T06:54:15.670Z,17.95
2019-01-23T06:56:43.666Z,20.72
2019-01-23T06:59:11.132Z,19.35
2019-01-23T07:01:38.700Z,19.70
2019-01-23T07:04:06.361Z,19.45
2019-01-23T07:06:33.909Z,20.50
2019-01-23T07:09:01.342Z,21.75
2019-01-23T07:11:28.811Z,19.75
2019-01-23T07:13:56.268Z,19.60
2019-01-23T07:16:23.783Z,23.80
2019-01-23T07:18:51.627Z,19.75
2019-01-23T07:21:19.128Z,22.93
2019-01-23T07:23:47.144Z,21.10
2019-01-23T07:26:14.740Z,22.30
2019-01-23T07:28:42.315Z,21.45
2019-01-23T07:31:09.789Z,21.12
2019-01-23T07:33:37.332Z,21.20
2019-01-23T07:36:04.908Z,21.10
2019-01-23T07:38:32.472Z,19.55
2019-01-23T07:41:00.595Z,22.75
2019-01-23T07:43:28.118Z,20.97
2019-01-23T07:45:55.987Z,23.65
2019-01-23T07:48:23.510Z,20.50
2019-01-23T07:50:51.414Z,23.32
2019-01-23T07:53:19.012Z,22.32
2019-01-23T07:55:46.603Z,20.75
2019-01-23T07:58:14.191Z,20.50
2019-01-23T08:00:41.899Z,21.48
2019-01-23T08:03:09.437Z,22.87
2019-01-23T08:05:37.248Z,22.07
2019-01-23T08:08:04.742Z,20.52
2019-01-23T08:10:32.434Z,21.75
2019-01-23T08:12:59.883Z,21.75
2019-01-23T08:15:29.919Z,20.92
2019-01-23T08:17:57.836Z,21.60
2019-01-23T08:20:26.126Z,23.52
2019-01-23T08:22:53.751Z,22.77
2019-01-23T08:25:21.388Z,24.12
2019-01-23T08:27:49.129Z,25.17
2019-01-23T08:30:19.765Z,24.02
2019-01-23T08:32:47.920Z,21.25
2019-01-23T08:35:16.622Z,25.02
2019-01-23T08:37:44.099Z,24.15
2019-01-23T08:40:12.937Z,26.60
2019-01-23T08:42:40.757Z,24.35
2019-01-23T08:45:10.071Z,23.70
2019-01-23T08:47:37.575Z,24.10
2019-01-23T08:50:12.652Z,24.85
2019-01-23T08:52:40.419Z,24.70
2019-01-23T08:55:07.871Z,25.23
2019-01-23T08:57:35.518Z,24.95
2019-01-23T09:00:04.662Z,24.85
2019-01-23T09:02:32.873Z,23.02
2019-01-23T09:05:00.363Z,24.37
2019-01-23T09:07:27.919Z,24.92
2019-01-23T09:09:55.507Z,23.47
2019-01-23T09:12:23.369Z,21.52
2019-01-23T09:14:50.998Z,23.10
2019-01-23T09:17:18.495Z,23.92
2019-01-23T09:19:46.096Z,23.32
2019-01-23T09:22:13.784Z,19.90
2019-01-23T09:24:41.348Z,22.65
2019-01-23T09:27:09.073Z,23.55
2019-01-23T09:29:36.499Z,23.20
2019-01-23T09:32:40.318Z,24.90
2019-01-23T09:35:19.766Z,23.50
2019-01-23T09:38:30.478Z,20.72
2019-01-23T09:41:11.092Z,23.67
2019-01-23T09:44:03.556Z,22.75
2019-01-23T09:47:00.492Z,23.10
2019-01-23T09:50:02.940Z,22.42
2019-01-23T09:53:04.616Z,22.25
2019-01-23T09:55:32.245Z,21.95
2019-01-23T09:58:06.290Z,23.98
2019-01-23T10:00:33.778Z,21.27
2019-01-23T10:03:01.331Z,20.75
2019-01-23T10:05:28.888Z,23.00
2019-01-23T10:07:56.357Z,22.10
2019-01-23T10:10:24.127Z,21.50
2019-01-23T10:12:51.580Z,21.48
2019-01-23T10:15:31.707Z,22.13
2019-01-23T10:17:59.142Z,22.75
2019-01-23T10:20:26.656Z,23.15
2019-01-23T10:22:54.179Z,22.98
2019-01-23T10:25:21.989Z,21.00
2019-01-23T10:27:49.540Z,22.82
2019-01-23T10:30:17.234Z,19.55
2019-01-23T10:32:45.018Z,22.30
2019-01-23T10:35:13.463Z,24.47
2019-01-23T10:37:40.983Z,23.05
2019-01-23T10:40:12.509Z,21.90
2019-01-23T10:42:40.183Z,23.52
2019-01-23T10:45:09.950Z,23.40
2019-01-23T10:47:37.474Z,23.32
2019-01-23T10:50:05.730Z,21.37
2019-01-23T10:52:33.281Z,23.32
2019-01-23T10:55:00.923Z,24.67
2019-01-23T10:57:28.652Z,24.92
2019-01-23T10:59:56.292Z,24.63
2019-01-23T11:02:23.730Z,24.00
2019-01-23T11:04:51.591Z,23.02
2019-01-23T11:07:19.036Z,23.95
2019-01-23T11:09:46.734Z,22.85
2019-01-23T11:12:19.451Z,23.45
2019-01-23T11:14:47.124Z,21.93
2019-01-23T11:17:14.704Z,24.90
2019-01-23T11:19:42.522Z,25.70
2019-01-23T11:22:10.227Z,24.90
2019-01-23T11:24:37.783Z,23.50
2019-01-23T11:27:05.457Z,24.63
2019-01-23T11:29:33.442Z,23.27
2019-01-23T11:32:01.510Z,23.25
2019-01-23T11:34:28.955Z,23.32
2019-01-23T11:36:57.234Z,23.02
2019-01-23T11:39:25.884Z,22.48
2019-01-23T11:41:53.455Z,20.75
2019-01-23T11:44:21.008Z,21.82
2019-01-23T11:46:49.173Z,22.62
2019-01-23T11:49:16.871Z,20.97
2019-01-23T11:51:44.512Z,23.47
2019-01-23T11:54:13.391Z,21.48
2019-01-23T11:56:41.068Z,20.88
2019-01-23T11:59:08.693Z,23.35
2019-01-23T12:01:36.265Z,20.60
2019-01-23T12:04:04.499Z,22.15
2019-01-23T12:06:32.106Z,23.00
2019-01-23T12:08:59.632Z,21.25
2019-01-23T12:11:27.179Z,23.35
2019-01-23T12:13:54.621Z,21.77
2019-01-23T12:16:22.381Z,22.80
2019-01-23T12:18:49.885Z,21.80
2019-01-23T12:21:17.464Z,22.22
2019-01-23T12:23:45.178Z,21.42
2019-01-23T12:26:12.944Z,21.97
2019-01-23T12:28:42.456Z,23.05
2019-01-23T12:31:10.301Z,22.55
2019-01-23T12:33:38.222Z,22.37
2019-01-23T12:36:05.802Z,21.30
2019-01-23T12:38:33.291Z,21.82
2019-01-23T12:41:00.836Z,20.62
2019-01-23T12:43:28.465Z,22.25
2019-01-23T12:45:55.999Z,22.62
2019-01-23T12:48:23.852Z,21.65
2019-01-23T12:50:51.342Z,22.40
2019-01-23T12:53:19.137Z,22.15
2019-01-23T12:56:04.770Z,20.40
2019-01-23T12:58:32.371Z,23.20
2019-01-23T13:00:59.912Z,22.60
2019-01-23T13:03:27.560Z,22.70
2019-01-23T13:05:55.362Z,24.67
2019-01-23T13:08:22.897Z,20.90
2019-01-23T13:10:50.520Z,22.67
2019-01-23T13:13:19.237Z,21.27
2019-01-23T13:15:47.000Z,24.95
2019-01-23T13:18:14.459Z,21.42
2019-01-23T13:20:42.511Z,21.40
2019-01-23T13:23:10.003Z,23.90
2019-01-23T13:25:37.656Z,24.30
2019-01-23T13:28:05.539Z,25.25
2019-01-23T13:30:33.031Z,23.45
2019-01-23T13:33:00.617Z,24.90
2019-01-23T13:35:34.086Z,23.95
2019-01-23T13:38:01.689Z,23.52
2019-01-23T13:40:34.211Z,23.32
2019-01-23T13:43:02.346Z,23.50
2019-01-23T13:45:30.612Z,23.98
2019-01-23T13:47:58.353Z,21.80
2019-01-23T13:50:25.772Z,22.25
2019-01-23T13:52:53.370Z,24.37
2019-01-23T13:55:21.259Z,22.85
2019-01-23T13:57:49.511Z,24.35
2019-01-23T14:00:20.966Z,24.05
2019-01-23T14:02:49.165Z,23.67
2019-01-23T14:05:16.940Z,24.43
2019-01-23T14:07:44.752Z,23.65
2019-01-23T14:10:14.171Z,23.30
2019-01-23T14:12:41.761Z,22.45
2019-01-23T14:15:13.955Z,25.92
2019-01-23T14:17:41.570Z,25.00
2019-01-23T14:20:11.035Z,21.62
2019-01-23T14:22:38.632Z,24.60
2019-01-23T14:25:06.678Z,23.55
2019-01-23T14:27:34.127Z,26.33
2019-01-23T14:30:01.741Z,23.42
2019-01-23T14:32:29.198Z,25.15
2019-01-23T14:34:56.743Z,24.55
2019-01-23T14:37:24.323Z,23.73
2019-01-23T14:39:52.041Z,23.92
2019-01-23T14:42:19.454Z,21.70
2019-01-23T14:44:47.000Z,24.92
2019-01-23T14:47:14.607Z,24.00
2019-01-23T14:49:42.127Z,22.55
2019-01-23T14:52:09.695Z,23.52
2019-01-23T14:54:37.261Z,23.42
2019-01-23T14:57:04.782Z,25.62
2019-01-23T14:59:32.978Z,25.20
2019-01-23T15:02:00.532Z,23.05
2019-01-23T15:04:27.978Z,21.82
2019-01-23T15:06:55.417Z,23.20
2019-01-23T15:09:22.954Z,25.65
2019-01-23T15:11:50.646Z,26.27
2019-01-23T15:14:18.141Z,25.15
2019-01-23T15:16:45.711Z,24.18
2019-01-23T15:19:13.404Z,22.80
2019-01-23T15:21:40.972Z,23.57
2019-01-23T15:24:08.477Z,25.27
2019-01-23T15:26:35.896Z,24.70
2019-01-23T15:29:03.541Z,25.80
2019-01-23T15:31:31.121Z,22.62
2019-01-23T15:33:58.664Z,24.43
2019-01-23T15:36:26.263Z,24.10
2019-01-23T15:38:53.873Z,23.80
2019-01-23T15:41:21.290Z,24.47
2019-01-23T15:43:48.831Z,25.90
2019-01-23T15:46:16.313Z,23.92
2019-01-23T15:48:43.922Z,25.27
2019-01-23T15:51:11.425Z,25.25
2019-01-23T15:53:41.281Z,23.07
2019-01-23T15:56:09.537Z,24.67
2019-01-23T15:58:37.077Z,24.30
2019-01-23T16:01:04.660Z,24.90
2019-01-23T16:03:32.345Z,26.57
2019-01-23T16:05:59.962Z,24.25
2019-01-23T16:08:27.651Z,24.52
2019-01-23T16:10:55.474Z,24.15
2019-01-23T16:13:23.300Z,22.85
2019-01-23T16:15:50.950Z,22.25
2019-01-23T16:18:18.667Z,24.77
2019-01-23T16:20:46.514Z,25.08
2019-01-23T16:23:14.224Z,27.52
2019-01-23T16:25:41.694Z,23.67
2019-01-23T16:28:09.196Z,26.27
2019-01-23T16:30:38.785Z,24.20
2019-01-23T16:33:06.781Z,26.77
2019-01-23T16:35:38.570Z,22.75
2019-01-23T16:38:06.651Z,25.50
2019-01-23T16:40:34.291Z,25.32
2019-01-23T16:43:01.876Z,23.02
2019-01-23T16:45:29.833Z,24.65
2019-01-23T16:47:57.899Z,21.82
2019-01-23T16:50:25.881Z,24.15
2019-01-23T16:52:54.008Z,24.72
2019-01-23T16:55:22.169Z,24.55
2019-01-23T16:57:50.027Z,25.95
2019-01-23T17:00:19.907Z,27.67
2019-01-23T17:02:48.396Z,23.90
2019-01-23T17:05:21.652Z,25.10
2019-01-23T17:07:49.474Z,24.50
2019-01-23T17:10:18.743Z,25.68
2019-01-23T17:12:47.133Z,24.75
2019-01-23T17:15:15.273Z,25.32
2019-01-23T17:17:43.175Z,25.62
2019-01-23T17:20:15.398Z,22.52
2019-01-23T17:22:43.108Z,24.40
2019-01-23T17:25:11.412Z,24.65
2019-01-23T17:27:39.674Z,25.57
2019-01-23T17:30:08.811Z,28.15
2019-01-23T17:32:36.547Z,23.22
2019-01-23T17:35:05.989Z,26.50
2019-01-23T17:37:33.798Z,24.92
2019-01-23T17:40:01.656Z,23.60
2019-01-23T17:42:29.244Z,25.00
2019-01-23T17:44:56.833Z,24.37
2019-01-23T17:47:25.202Z,24.30
2019-01-23T17:49:52.749Z,24.05
2019-01-23T17:52:20.522Z,25.80
2019-01-23T17:54:48.593Z,27.48
2019-01-23T17:57:16.255Z,25.10
2019-01-23T17:59:43.951Z,26.15
2019-01-23T18:02:11.571Z,23.22
2019-01-23T18:04:39.132Z,25.15
2019-01-23T18:07:06.894Z,26.25
2019-01-23T18:09:35.679Z,25.52
2019-01-23T18:12:03.976Z,25.77
2019-01-23T18:14:31.543Z,25.00
2019-01-23T18:16:59.391Z,22.37
2019-01-23T18:19:27.371Z,24.87
2019-01-23T18:21:55.064Z,24.72
2019-01-23T18:24:22.806Z,23.05
2019-01-23T18:26:50.480Z,23.62
2019-01-23T18:29:18.079Z,22.40
2019-01-23T18:31:58.803Z,23.38
2019-01-23T18:34:50.711Z,23.70
2019-01-23T18:37:32.589Z,23.18
2019-01-23T18:40:42.096Z,23.15
2019-01-23T18:43:49.864Z,19.80
2019-01-23T18:46:55.317Z,22.00
2019-01-23T18:49:35.129Z,21.33
2019-01-23T18:52:21.036Z,21.75
2019-01-23T18:54:49.376Z,21.80
2019-01-23T18:57:20.520Z,25.08
2019-01-23T18:59:48.233Z,22.13
2019-01-23T19:02:15.848Z,20.02
2019-01-23T19:04:43.568Z,19.73
2019-01-23T19:07:11.330Z,21.20
2019-01-23T19:09:39.579Z,22.65
2019-01-23T19:12:07.097Z,21.62
2019-01-23T19:14:34.684Z,22.37
2019-01-23T19:17:02.353Z,23.38
2019-01-23T19:19:29.960Z,22.52
2019-01-23T19:21:57.676Z,23.85
2019-01-23T19:24:25.413Z,23.47
2019-01-23T19:26:53.363Z,21.75
2019-01-23T19:29:21.084Z,19.00
2019-01-23T19:31:48.775Z,22.67
2019-01-23T19:34:16.489Z,22.77
2019-01-23T19:36:44.293Z,25.43
2019-01-23T19:39:12.078Z,25.02
2019-01-23T19:41:39.926Z,23.57
2019-01-23T19:44:07.864Z,24.50
2019-01-23T19:46:35.789Z,23.83
2019-01-23T19:49:03.944Z,21.17
2019-01-23T19:51:31.669Z,25.52
2019-01-23T19:53:59.363Z,22.95
2019-01-23T19:56:27.910Z,22.25
2019-01-23T19:58:55.870Z,23.60
2019-01-23T20:01:23.751Z,22.25
2019-01-23T20:03:51.741Z,23.27
2019-01-23T20:06:19.624Z,21.75
2019-01-23T20:08:47.743Z,21.20
2019-01-23T20:11:15.295Z,22.67
2019-01-23T20:13:42.850Z,23.22
2019-01-23T20:16:10.515Z,26.33
2019-01-23T20:18:38.264Z,25.90
2019-01-23T20:21:05.992Z,23.40
2019-01-23T20:23:33.621Z,24.43
2019-01-23T20:26:01.375Z,23.80
2019-01-23T20:28:32.025Z,19.77
2019-01-23T20:30:59.955Z,22.22
2019-01-23T20:33:28.101Z,23.50
2019-01-23T20:35:57.078Z,21.75
2019-01-23T20:38:24.802Z,22.27
2019-01-23T20:40:52.679Z,22.37
2019-01-23T20:43:20.594Z,20.57
2019-01-23T20:45:48.538Z,21.45
2019-01-23T20:48:16.260Z,22.55
2019-01-23T20:50:43.936Z,20.00
2019-01-23T20:53:11.415Z,22.82
2019-01-23T20:55:39.397Z,22.62
2019-01-23T20:58:07.896Z,21.10
2019-01-23T21:00:35.580Z,21.25
2019-01-23T21:03:03.841Z,20.35
2019-01-23T21:05:31.487Z,20.52
2019-01-23T21:07:59.048Z,19.00
2019-01-23T21:10:26.876Z,18.45
2019-01-23T21:12:54.426Z,21.12
2019-01-23T21:15:24.271Z,21.87
2019-01-23T21:17:51.997Z,20.30
2019-01-23T21:20:19.698Z,20.05
2019-01-23T21:22:47.540Z,19.20
2019-01-23T21:25:15.663Z,20.48
2019-01-23T21:27:44.421Z,20.85
2019-01-23T21:30:17.688Z,21.42
2019-01-23T21:32:45.296Z,21.62
2019-01-23T21:35:13.312Z,21.57
2019-01-23T21:37:40.956Z,20.45
2019-01-23T21:40:12.785Z,21.73
2019-01-23T21:42:40.408Z,22.25
2019-01-23T21:45:09.392Z,21.07
2019-01-23T21:47:37.269Z,23.10
2019-01-23T21:50:06.158Z,21.73
2019-01-23T21:52:33.733Z,23.32
2019-01-23T21:55:01.342Z,20.45
2019-01-23T21:57:29.087Z,23.77
2019-01-23T21:59:56.551Z,22.62
2019-01-23T22:02:24.131Z,21.77
2019-01-23T22:04:52.216Z,22.80
2019-01-23T22:07:19.729Z,20.20
2019-01-23T22:09:47.248Z,22.80
2019-01-23T22:12:14.759Z,19.73
2019-01-23T22:14:42.196Z,22.32
2019-01-23T22:17:09.649Z,22.20
2019-01-23T22:19:37.227Z,20.55
2019-01-23T22:22:04.788Z,22.40
2019-01-23T22:24:32.279Z,21.27
2019-01-23T22:26:59.942Z,20.97
2019-01-23T22:29:27.355Z,20.70
2019-01-23T22:31:55.124Z,22.37
2019-01-23T22:34:22.502Z,22.62
2019-01-23T22:36:50.072Z,22.70
2019-01-23T22:39:17.616Z,23.40
2019-01-23T22:41:45.169Z,25.20
2019-01-23T22:44:12.645Z,23.57
2019-01-23T22:46:40.095Z,25.65
2019-01-23T22:49:07.957Z,23.32
2019-01-23T22:51:35.503Z,23.85
2019-01-23T22:54:03.490Z,22.67
2019-01-23T22:56:31.045Z,21.52
2019-01-23T22:58:58.535Z,21.93
2019-01-23T23:01:30.338Z,21.48
2019-01-23T23:04:03.371Z,23.27
2019-01-23T23:06:29.183Z,24.50
2019-01-23T23:08:57.343Z,20.02
2019-01-23T23:11:24.983Z,19.80
2019-01-23T23:13:52.547Z,24.40
2019-01-23T23:16:20.098Z,21.05
2019-01-23T23:18:47.618Z,19.98
2019-01-23T23:21:15.162Z,21.70
2019-01-23T23:23:42.559Z,22.45
2019-01-23T23:26:10.173Z,22.70
2019-01-23T23:28:38.005Z,23.07
2019-01-23T23:31:05.638Z,24.10
2019-01-23T23:33:33.217Z,23.18
2019-01-23T23:36:00.655Z,21.42
2019-01-23T23:38:28.795Z,23.65
2019-01-23T23:40:56.167Z,22.75
2019-01-23T23:43:23.675Z,22.30
2019-01-23T23:45:51.090Z,21.45
2019-01-23T23:48:19.224Z,22.40
2019-01-23T23:50:47.286Z,21.77
2019-01-23T23:53:14.880Z,23.25
2019-01-23T23:55:42.314Z,23.02
2019-01-23T23:58:09.818Z,23.60
